ADDS METAR Data INFO
IDs: Format: Raw Decoded Include TAF

Data at: 2245 UTC 11 Dec 2017

KBZN 112156Z 00000KT 10SM CLR 01/M06 A3047 RMK AO2 SLP375 T00061061
KBZN 112056Z 18004KT 10SM CLR 00/M06 A3049 RMK AO2 SLP377 T00001061 58017
KBZN 111956Z 14003KT 10SM CLR M02/M07 A3051 RMK AO2 SLP389 T10171072
KBZN 111856Z 00000KT 10SM CLR M02/M08 A3052 RMK AO2 SLP397 T10221083
KBZN 111756Z 00000KT 10SM CLR M04/M08 A3054 RMK AO2 SLP405 T10391083 11039 21122 50005
KBZN 111656Z 15003KT 10SM CLR M08/M11 A3055 RMK AO2 SLP417 T10781111
KBZN 111556Z 00000KT 10SM CLR M11/M13 A3054 RMK AO2 SLP423 T11061133
KBZN 111456Z COR 21004KT 10SM CLR M09/M13 A3052 RMK AO2 SLP410 T10941128 53001
KBZN 111356Z 00000KT 10SM CLR M11/M13 A3052 RMK AO2 SLP406 T11061133
KBZN 111256Z 17004KT 10SM CLR M10/M13 A3051 RMK AO2 SLP399 T11001133
KBZN 111156Z AUTO 16005KT 10SM CLR M11/M14 A3052 RMK AO2 SLP402 T11111139 11089 21122 53004
KBZN 111056Z AUTO 19005KT 10SM CLR M11/M14 A3050 RMK AO2 SLP396 T11111139
KBZN 110956Z AUTO 12003KT 10SM CLR M12/M15 A3051 RMK AO2 SLP391 T11171150
KBZN 110856Z AUTO 00000KT 10SM CLR M09/M13 A3051 RMK AO2 SLP387 T10891128 58003
KBZN 110756Z AUTO 17003KT 10SM CLR M10/M14 A3051 RMK AO2 SLP392 T11001139
KBZN 110656Z 16006KT 10SM CLR M10/M13 A3052 RMK AO2 SLP398 T11001128 410061144
KBZN 110556Z 17004KT 7SM CLR M09/M13 A3052 RMK AO2 SLP396 T10941128 11039 21122 53008
KBZN 110456Z 15003KT 10SM CLR M11/M13 A3050 RMK AO2 SLP403 T11061133
KBZN 110356Z 12005KT 10SM CLR M12/M14 A3050 RMK AO2 SLP409 T11171144
KBZN 110256Z 16004KT 10SM CLR M09/M12 A3049 RMK AO2 SLP407 T10941122 53007
KBZN 110156Z 20006KT 10SM CLR M08/M11 A3048 RMK AO2 SLP397 T10781106
KBZN 110056Z 20004KT 10SM CLR M06/M09 A3047 RMK AO2 SLP391 T10561094
KBZN 102356Z VRB03KT 10SM CLR M05/M08 A3047 RMK AO2 SLP385 T10501078 11006 21056 56007
KBZN 102256Z 11005KT 10SM CLR M04/M09 A3046 RMK AO2 SLP383 T10441089
KBZN 102156Z 15003KT 10SM CLR M01/M08 A3048 RMK AO2 SLP379 T10111083
KBZN 102056Z 14004KT 10SM CLR M02/M07 A3049 RMK AO2 SLP387 T10171067 58013
KBZN 101956Z 00000KT 10SM CLR M02/M08 A3052 RMK AO2 SLP400 T10221083
KBZN 101856Z 14003KT 10SM CLR M03/M09 A3053 RMK AO2 SLP401 T10331089
KBZN 101756Z 00000KT 10SM CLR M04/M09 A3053 RMK AO2 SLP409 T10441089 11039 21144 55000
KBZN 101656Z 19003KT 10SM CLR M09/M12 A3053 RMK AO2 SLP411 T10891117
KBZN 101556Z 00000KT 10SM CLR M12/M14 A3052 RMK AO2 SLP412 T11221144
KBZN 101456Z 13004KT 10SM CLR M14/M17 A3053 RMK AO2 SLP421 T11441167 51008
KBZN 101356Z 15005KT 10SM CLR M13/M15 A3052 RMK AO2 SLP415 T11281150
KBZN 101256Z 16004KT 10SM CLR M13/M16 A3052 RMK AO2 SLP406 T11331156
KBZN 101156Z AUTO 20003KT 10SM CLR M12/M14 A3050 RMK AO2 SLP395 T11221144 11094 21133 58009
KBZN 101056Z AUTO 16004KT 10SM CLR M11/M14 A3052 RMK AO2 SLP398 T11111139